sensor_id;sensor_type;location;lat;lon;timestamp;temperature;humidity
13650;DHT22;6898;50.918;4.688;2023-06-24T00:01:09;21.10;99.90
13650;DHT22;6898;50.918;4.688;2023-06-24T00:03:41;21.10;99.90
13650;DHT22;6898;50.918;4.688;2023-06-24T00:06:14;21.10;99.90
13650;DHT22;6898;50.918;4.688;2023-06-24T00:08:47;21.00;99.90
13650;DHT22;6898;50.918;4.688;2023-06-24T00:11:15;21.00;99.90
13650;DHT22;6898;50.918;4.688;2023-06-24T00:13:44;20.90;99.90
13650;DHT22;6898;50.918;4.688;2023-06-24T00:16:12;21.00;99.90
13650;DHT22;6898;50.918;4.688;2023-06-24T00:18:41;21.00;99.90
13650;DHT22;6898;50.918;4.688;2023-06-24T00:21:09;20.90;99.90
13650;DHT22;6898;50.918;4.688;2023-06-24T00:23:37;21.00;99.90
13650;DHT22;6898;50.918;4.688;2023-06-24T00:26:07;20.90;99.90
13650;DHT22;6898;50.918;4.688;2023-06-24T00:28:35;20.90;99.90
13650;DHT22;6898;50.918;4.688;2023-06-24T00:31:06;20.80;99.90
13650;DHT22;6898;50.918;4.688;2023-06-24T00:33:35;20.80;99.90
13650;DHT22;6898;50.918;4.688;2023-06-24T00:36:03;20.80;99.90
13650;DHT22;6898;50.918;4.688;2023-06-24T00:38:32;20.70;99.90
13650;DHT22;6898;50.918;4.688;2023-06-24T00:41:00;20.70;99.90
13650;DHT22;6898;50.918;4.688;2023-06-24T00:43:30;20.60;99.90
13650;DHT22;6898;50.918;4.688;2023-06-24T00:45:58;20.50;99.90
13650;DHT22;6898;50.918;4.688;2023-06-24T00:48:27;20.50;99.90
13650;DHT22;6898;50.918;4.688;2023-06-24T00:50:55;20.40;99.90
13650;DHT22;6898;50.918;4.688;2023-06-24T00:53:25;20.20;99.90
13650;DHT22;6898;50.918;4.688;2023-06-24T00:55:55;20.20;99.90
13650;DHT22;6898;50.918;4.688;2023-06-24T00:58:31;20.20;99.90
13650;DHT22;6898;50.918;4.688;2023-06-24T01:01:00;20.00;99.90
13650;DHT22;6898;50.918;4.688;2023-06-24T01:03:30;19.80;99.90
13650;DHT22;6898;50.918;4.688;2023-06-24T01:05:58;19.90;99.90
13650;DHT22;6898;50.918;4.688;2023-06-24T01:08:26;19.80;99.90
13650;DHT22;6898;50.918;4.688;2023-06-24T01:10:55;19.80;99.90
13650;DHT22;6898;50.918;4.688;2023-06-24T01:13:23;19.80;99.90
13650;DHT22;6898;50.918;4.688;2023-06-24T01:15:53;19.80;99.90
13650;DHT22;6898;50.918;4.688;2023-06-24T01:18:29;19.80;99.90
13650;DHT22;6898;50.918;4.688;2023-06-24T01:21:06;19.70;99.90
13650;DHT22;6898;50.918;4.688;2023-06-24T01:24:05;19.70;99.90
13650;DHT22;6898;50.918;4.688;2023-06-24T01:27:19;19.70;99.90
13650;DHT22;6898;50.918;4.688;2023-06-24T01:30:14;19.60;99.90
13650;DHT22;6898;50.918;4.688;2023-06-24T01:32:49;19.50;99.90
13650;DHT22;6898;50.918;4.688;2023-06-24T01:35:21;19.40;99.90
13650;DHT22;6898;50.918;4.688;2023-06-24T01:37:51;19.30;99.90
13650;DHT22;6898;50.918;4.688;2023-06-24T01:40:25;19.30;99.90
13650;DHT22;6898;50.918;4.688;2023-06-24T01:42:56;19.10;99.90
13650;DHT22;6898;50.918;4.688;2023-06-24T01:45:29;19.10;99.90
13650;DHT22;6898;50.918;4.688;2023-06-24T01:48:01;19.00;99.90
13650;DHT22;6898;50.918;4.688;2023-06-24T01:50:36;18.90;99.90
13650;DHT22;6898;50.918;4.688;2023-06-24T01:53:06;18.90;99.90
13650;DHT22;6898;50.918;4.688;2023-06-24T01:55:35;19.00;99.90
13650;DHT22;6898;50.918;4.688;2023-06-24T01:58:06;18.90;99.90
13650;DHT22;6898;50.918;4.688;2023-06-24T02:00:35;18.80;99.90
13650;DHT22;6898;50.918;4.688;2023-06-24T02:03:07;18.80;99.90
13650;DHT22;6898;50.918;4.688;2023-06-24T02:05:36;18.70;99.90
13650;DHT22;6898;50.918;4.688;2023-06-24T02:08:08;18.70;99.90
13650;DHT22;6898;50.918;4.688;2023-06-24T02:10:38;18.70;99.90
13650;DHT22;6898;50.918;4.688;2023-06-24T02:13:09;18.70;99.90
13650;DHT22;6898;50.918;4.688;2023-06-24T02:15:40;18.60;99.90
13650;DHT22;6898;50.918;4.688;2023-06-24T02:18:11;18.60;99.90
13650;DHT22;6898;50.918;4.688;2023-06-24T02:20:40;18.50;99.90
13650;DHT22;6898;50.918;4.688;2023-06-24T02:23:11;18.50;99.90
13650;DHT22;6898;50.918;4.688;2023-06-24T02:25:40;18.40;99.90
13650;DHT22;6898;50.918;4.688;2023-06-24T02:28:09;18.30;99.90
13650;DHT22;6898;50.918;4.688;2023-06-24T02:30:38;18.30;99.90
13650;DHT22;6898;50.918;4.688;2023-06-24T02:33:07;18.10;99.90
13650;DHT22;6898;50.918;4.688;2023-06-24T02:35:37;18.10;99.90
13650;DHT22;6898;50.918;4.688;2023-06-24T02:38:08;17.90;99.90
13650;DHT22;6898;50.918;4.688;2023-06-24T02:40:36;17.80;99.90
13650;DHT22;6898;50.918;4.688;2023-06-24T02:43:05;17.80;99.90
13650;DHT22;6898;50.918;4.688;2023-06-24T02:45:34;17.80;99.90
13650;DHT22;6898;50.918;4.688;2023-06-24T02:48:02;17.80;99.90
13650;DHT22;6898;50.918;4.688;2023-06-24T02:50:33;17.80;99.90
13650;DHT22;6898;50.918;4.688;2023-06-24T02:53:03;17.90;99.90
13650;DHT22;6898;50.918;4.688;2023-06-24T02:55:33;17.90;99.90
13650;DHT22;6898;50.918;4.688;2023-06-24T02:58:03;17.90;99.90
13650;DHT22;6898;50.918;4.688;2023-06-24T03:00:32;18.50;99.90
13650;DHT22;6898;50.918;4.688;2023-06-24T03:03:08;17.90;99.90
13650;DHT22;6898;50.918;4.688;2023-06-24T03:05:39;17.90;99.90
13650;DHT22;6898;50.918;4.688;2023-06-24T03:08:10;17.80;99.90
13650;DHT22;6898;50.918;4.688;2023-06-24T03:10:41;17.70;99.90
13650;DHT22;6898;50.918;4.688;2023-06-24T03:13:09;17.80;99.90
13650;DHT22;6898;50.918;4.688;2023-06-24T03:15:38;17.70;99.90
13650;DHT22;6898;50.918;4.688;2023-06-24T03:18:06;17.70;99.90
13650;DHT22;6898;50.918;4.688;2023-06-24T03:20:34;17.70;99.90
13650;DHT22;6898;50.918;4.688;2023-06-24T03:23:08;17.70;99.90
13650;DHT22;6898;50.918;4.688;2023-06-24T03:25:37;17.60;99.90
13650;DHT22;6898;50.918;4.688;2023-06-24T03:28:08;17.60;99.90
13650;DHT22;6898;50.918;4.688;2023-06-24T03:30:36;17.50;99.90
13650;DHT22;6898;50.918;4.688;2023-06-24T03:33:04;17.50;99.90
13650;DHT22;6898;50.918;4.688;2023-06-24T03:35:33;17.50;99.90
13650;DHT22;6898;50.918;4.688;2023-06-24T03:38:01;17.40;99.90
13650;DHT22;6898;50.918;4.688;2023-06-24T03:40:31;17.30;99.90
13650;DHT22;6898;50.918;4.688;2023-06-24T03:42:59;17.30;99.90
13650;DHT22;6898;50.918;4.688;2023-06-24T03:45:27;17.30;99.90
13650;DHT22;6898;50.918;4.688;2023-06-24T03:47:56;17.20;99.90
13650;DHT22;6898;50.918;4.688;2023-06-24T03:50:24;17.20;99.90
13650;DHT22;6898;50.918;4.688;2023-06-24T03:52:52;17.20;99.90
13650;DHT22;6898;50.918;4.688;2023-06-24T03:55:21;17.20;99.90
13650;DHT22;6898;50.918;4.688;2023-06-24T03:57:50;17.20;99.90
13650;DHT22;6898;50.918;4.688;2023-06-24T04:00:18;17.20;99.90
13650;DHT22;6898;50.918;4.688;2023-06-24T04:02:47;17.20;99.90
13650;DHT22;6898;50.918;4.688;2023-06-24T04:05:16;17.20;99.90
13650;DHT22;6898;50.918;4.688;2023-06-24T04:07:44;17.20;99.90
13650;DHT22;6898;50.918;4.688;2023-06-24T04:10:14;17.20;99.90
13650;DHT22;6898;50.918;4.688;2023-06-24T04:12:42;17.20;99.90
13650;DHT22;6898;50.918;4.688;2023-06-24T04:15:13;17.10;99.90
13650;DHT22;6898;50.918;4.688;2023-06-24T04:17:42;17.10;99.90
13650;DHT22;6898;50.918;4.688;2023-06-24T04:20:11;17.10;99.90
13650;DHT22;6898;50.918;4.688;2023-06-24T04:22:40;17.10;99.90
13650;DHT22;6898;50.918;4.688;2023-06-24T04:25:09;17.20;99.90
13650;DHT22;6898;50.918;4.688;2023-06-24T04:27:38;17.20;99.90
13650;DHT22;6898;50.918;4.688;2023-06-24T04:30:10;17.20;99.90
13650;DHT22;6898;50.918;4.688;2023-06-24T04:32:40;17.20;99.90
13650;DHT22;6898;50.918;4.688;2023-06-24T04:35:09;17.20;99.90
13650;DHT22;6898;50.918;4.688;2023-06-24T04:37:37;17.30;99.90
13650;DHT22;6898;50.918;4.688;2023-06-24T04:40:06;17.30;99.90
13650;DHT22;6898;50.918;4.688;2023-06-24T04:42:34;17.30;99.90
13650;DHT22;6898;50.918;4.688;2023-06-24T04:45:03;17.30;99.90
13650;DHT22;6898;50.918;4.688;2023-06-24T04:47:32;17.30;99.90
13650;DHT22;6898;50.918;4.688;2023-06-24T04:50:02;17.30;99.90
13650;DHT22;6898;50.918;4.688;2023-06-24T04:52:30;17.30;99.90
13650;DHT22;6898;50.918;4.688;2023-06-24T04:54:59;17.30;99.90
13650;DHT22;6898;50.918;4.688;2023-06-24T04:57:28;17.40;99.90
13650;DHT22;6898;50.918;4.688;2023-06-24T04:59:57;17.40;99.90
13650;DHT22;6898;50.918;4.688;2023-06-24T05:02:26;17.50;99.90
13650;DHT22;6898;50.918;4.688;2023-06-24T05:04:54;17.50;99.90
13650;DHT22;6898;50.918;4.688;2023-06-24T05:07:34;17.50;99.90
13650;DHT22;6898;50.918;4.688;2023-06-24T05:10:02;17.50;99.90
13650;DHT22;6898;50.918;4.688;2023-06-24T05:12:31;17.50;99.90
13650;DHT22;6898;50.918;4.688;2023-06-24T05:17:30;17.60;99.90
13650;DHT22;6898;50.918;4.688;2023-06-24T05:19:59;17.60;99.90
13650;DHT22;6898;50.918;4.688;2023-06-24T05:22:31;17.60;99.90
13650;DHT22;6898;50.918;4.688;2023-06-24T05:24:59;17.60;99.90
13650;DHT22;6898;50.918;4.688;2023-06-24T05:27:30;17.80;99.90
13650;DHT22;6898;50.918;4.688;2023-06-24T05:30:05;17.80;99.90
13650;DHT22;6898;50.918;4.688;2023-06-24T05:32:36;17.80;99.90
13650;DHT22;6898;50.918;4.688;2023-06-24T05:35:07;17.80;99.90
13650;DHT22;6898;50.918;4.688;2023-06-24T05:37:36;17.90;99.90
13650;DHT22;6898;50.918;4.688;2023-06-24T05:40:06;17.90;99.90
13650;DHT22;6898;50.918;4.688;2023-06-24T05:42:36;18.00;99.90
13650;DHT22;6898;50.918;4.688;2023-06-24T05:45:08;18.10;99.90
13650;DHT22;6898;50.918;4.688;2023-06-24T05:47:37;18.20;99.90
13650;DHT22;6898;50.918;4.688;2023-06-24T05:50:08;18.20;99.90
13650;DHT22;6898;50.918;4.688;2023-06-24T05:52:38;18.20;99.90
13650;DHT22;6898;50.918;4.688;2023-06-24T05:55:06;18.30;99.90
13650;DHT22;6898;50.918;4.688;2023-06-24T05:57:35;18.40;99.90
13650;DHT22;6898;50.918;4.688;2023-06-24T06:00:04;18.40;99.90
13650;DHT22;6898;50.918;4.688;2023-06-24T06:02:32;18.40;99.90
13650;DHT22;6898;50.918;4.688;2023-06-24T06:05:01;18.50;99.90
13650;DHT22;6898;50.918;4.688;2023-06-24T06:07:29;18.50;99.90
13650;DHT22;6898;50.918;4.688;2023-06-24T06:09:59;18.60;99.90
13650;DHT22;6898;50.918;4.688;2023-06-24T06:12:27;18.60;99.90
13650;DHT22;6898;50.918;4.688;2023-06-24T06:14:55;18.60;99.90
13650;DHT22;6898;50.918;4.688;2023-06-24T06:17:24;18.70;99.90
13650;DHT22;6898;50.918;4.688;2023-06-24T06:19:52;18.70;99.90
13650;DHT22;6898;50.918;4.688;2023-06-24T06:22:20;18.80;99.90
13650;DHT22;6898;50.918;4.688;2023-06-24T06:24:48;18.80;99.90
13650;DHT22;6898;50.918;4.688;2023-06-24T06:27:18;18.80;99.90
13650;DHT22;6898;50.918;4.688;2023-06-24T06:29:46;18.90;99.90
13650;DHT22;6898;50.918;4.688;2023-06-24T06:32:14;18.90;99.90
13650;DHT22;6898;50.918;4.688;2023-06-24T06:34:43;19.00;99.90
13650;DHT22;6898;50.918;4.688;2023-06-24T06:37:11;19.10;99.90
13650;DHT22;6898;50.918;4.688;2023-06-24T06:39:40;18.90;99.90
13650;DHT22;6898;50.918;4.688;2023-06-24T06:42:08;19.20;99.90
13650;DHT22;6898;50.918;4.688;2023-06-24T06:44:38;19.30;99.90
13650;DHT22;6898;50.918;4.688;2023-06-24T06:47:06;19.40;99.90
13650;DHT22;6898;50.918;4.688;2023-06-24T06:49:35;19.40;99.90
13650;DHT22;6898;50.918;4.688;2023-06-24T06:52:04;19.40;99.90
13650;DHT22;6898;50.918;4.688;2023-06-24T06:54:32;19.50;99.90
13650;DHT22;6898;50.918;4.688;2023-06-24T06:57:01;19.50;99.90
13650;DHT22;6898;50.918;4.688;2023-06-24T06:59:29;19.50;99.90
13650;DHT22;6898;50.918;4.688;2023-06-24T07:01:59;19.60;99.90
13650;DHT22;6898;50.918;4.688;2023-06-24T07:04:27;19.60;99.90
13650;DHT22;6898;50.918;4.688;2023-06-24T07:06:57;19.80;99.90
13650;DHT22;6898;50.918;4.688;2023-06-24T07:12:43;19.90;99.90
13650;DHT22;6898;50.918;4.688;2023-06-24T07:15:12;20.00;99.90
13650;DHT22;6898;50.918;4.688;2023-06-24T07:17:44;20.00;99.90
13650;DHT22;6898;50.918;4.688;2023-06-24T07:20:12;20.10;99.90
13650;DHT22;6898;50.918;4.688;2023-06-24T07:22:42;20.10;99.90
13650;DHT22;6898;50.918;4.688;2023-06-24T07:25:11;20.10;99.90
13650;DHT22;6898;50.918;4.688;2023-06-24T07:27:40;20.10;99.90
13650;DHT22;6898;50.918;4.688;2023-06-24T07:30:08;20.10;99.90
13650;DHT22;6898;50.918;4.688;2023-06-24T07:32:37;20.20;99.90
13650;DHT22;6898;50.918;4.688;2023-06-24T07:35:07;20.00;99.90
13650;DHT22;6898;50.918;4.688;2023-06-24T07:37:36;20.20;99.90
13650;DHT22;6898;50.918;4.688;2023-06-24T07:40:06;20.30;99.90
13650;DHT22;6898;50.918;4.688;2023-06-24T07:42:36;20.30;99.90
13650;DHT22;6898;50.918;4.688;2023-06-24T07:45:05;20.40;99.90
13650;DHT22;6898;50.918;4.688;2023-06-24T07:47:33;20.40;99.90
13650;DHT22;6898;50.918;4.688;2023-06-24T07:50:02;20.50;99.90
13650;DHT22;6898;50.918;4.688;2023-06-24T07:52:33;20.60;99.90
13650;DHT22;6898;50.918;4.688;2023-06-24T07:55:02;20.60;99.90
13650;DHT22;6898;50.918;4.688;2023-06-24T07:57:30;20.70;99.90
13650;DHT22;6898;50.918;4.688;2023-06-24T07:59:58;20.70;99.90
13650;DHT22;6898;50.918;4.688;2023-06-24T08:02:27;20.80;99.90
13650;DHT22;6898;50.918;4.688;2023-06-24T08:04:58;20.80;99.90
13650;DHT22;6898;50.918;4.688;2023-06-24T08:07:26;20.90;99.90
13650;DHT22;6898;50.918;4.688;2023-06-24T08:09:56;20.90;99.90
13650;DHT22;6898;50.918;4.688;2023-06-24T08:12:24;20.90;99.90
13650;DHT22;6898;50.918;4.688;2023-06-24T08:14:53;21.00;99.90
13650;DHT22;6898;50.918;4.688;2023-06-24T08:17:21;21.00;99.90
13650;DHT22;6898;50.918;4.688;2023-06-24T08:19:49;21.10;99.90
13650;DHT22;6898;50.918;4.688;2023-06-24T08:22:17;21.10;99.90
13650;DHT22;6898;50.918;4.688;2023-06-24T08:24:48;21.20;99.90
13650;DHT22;6898;50.918;4.688;2023-06-24T08:27:20;21.30;99.90
13650;DHT22;6898;50.918;4.688;2023-06-24T08:29:48;21.30;99.90
13650;DHT22;6898;50.918;4.688;2023-06-24T08:32:17;21.30;99.90
13650;DHT22;6898;50.918;4.688;2023-06-24T08:34:45;21.40;99.90
13650;DHT22;6898;50.918;4.688;2023-06-24T08:37:25;21.50;99.90
13650;DHT22;6898;50.918;4.688;2023-06-24T08:39:53;21.50;99.90
13650;DHT22;6898;50.918;4.688;2023-06-24T08:42:23;21.50;99.90
13650;DHT22;6898;50.918;4.688;2023-06-24T08:44:52;21.50;99.90
13650;DHT22;6898;50.918;4.688;2023-06-24T08:47:20;21.60;99.90
13650;DHT22;6898;50.918;4.688;2023-06-24T08:49:55;21.70;99.90
13650;DHT22;6898;50.918;4.688;2023-06-24T08:52:33;21.80;99.90
13650;DHT22;6898;50.918;4.688;2023-06-24T08:58:10;21.90;99.90
13650;DHT22;6898;50.918;4.688;2023-06-24T09:00:38;22.00;99.90
13650;DHT22;6898;50.918;4.688;2023-06-24T09:03:08;22.10;99.90
13650;DHT22;6898;50.918;4.688;2023-06-24T09:05:37;22.80;99.90
13650;DHT22;6898;50.918;4.688;2023-06-24T09:08:05;22.20;99.90
13650;DHT22;6898;50.918;4.688;2023-06-24T09:10:36;22.10;99.90
13650;DHT22;6898;50.918;4.688;2023-06-24T09:13:06;22.40;99.90
13650;DHT22;6898;50.918;4.688;2023-06-24T09:15:37;22.50;99.90
13650;DHT22;6898;50.918;4.688;2023-06-24T09:18:06;22.50;99.90
13650;DHT22;6898;50.918;4.688;2023-06-24T09:20:34;22.60;99.90
13650;DHT22;6898;50.918;4.688;2023-06-24T09:23:06;22.70;99.90
13650;DHT22;6898;50.918;4.688;2023-06-24T09:25:35;22.80;99.90
13650;DHT22;6898;50.918;4.688;2023-06-24T09:28:04;23.10;99.90
13650;DHT22;6898;50.918;4.688;2023-06-24T09:30:32;24.40;99.90
13650;DHT22;6898;50.918;4.688;2023-06-24T09:33:02;25.80;99.90
13650;DHT22;6898;50.918;4.688;2023-06-24T09:35:35;27.00;99.90
13650;DHT22;6898;50.918;4.688;2023-06-24T09:38:04;27.60;99.90
13650;DHT22;6898;50.918;4.688;2023-06-24T09:40:35;27.70;99.90
13650;DHT22;6898;50.918;4.688;2023-06-24T09:43:04;27.60;99.90
13650;DHT22;6898;50.918;4.688;2023-06-24T09:45:32;28.60;99.90
13650;DHT22;6898;50.918;4.688;2023-06-24T09:48:03;29.30;99.90
13650;DHT22;6898;50.918;4.688;2023-06-24T09:50:32;29.70;99.90
13650;DHT22;6898;50.918;4.688;2023-06-24T09:53:01;30.10;99.90
13650;DHT22;6898;50.918;4.688;2023-06-24T09:55:30;30.30;99.90
13650;DHT22;6898;50.918;4.688;2023-06-24T09:57:59;30.60;99.90
13650;DHT22;6898;50.918;4.688;2023-06-24T10:00:28;31.90;99.90
13650;DHT22;6898;50.918;4.688;2023-06-24T10:02:57;31.30;99.90
13650;DHT22;6898;50.918;4.688;2023-06-24T10:05:28;31.40;99.90
13650;DHT22;6898;50.918;4.688;2023-06-24T10:07:56;31.70;99.90
13650;DHT22;6898;50.918;4.688;2023-06-24T10:10:25;31.50;99.90
13650;DHT22;6898;50.918;4.688;2023-06-24T10:12:53;31.30;99.90
13650;DHT22;6898;50.918;4.688;2023-06-24T10:15:22;31.30;99.90
13650;DHT22;6898;50.918;4.688;2023-06-24T10:17:53;31.50;99.90
13650;DHT22;6898;50.918;4.688;2023-06-24T10:20:28;31.40;99.90
13650;DHT22;6898;50.918;4.688;2023-06-24T10:22:57;31.20;99.90
13650;DHT22;6898;50.918;4.688;2023-06-24T10:25:36;31.20;99.90
13650;DHT22;6898;50.918;4.688;2023-06-24T10:28:05;31.20;99.90
13650;DHT22;6898;50.918;4.688;2023-06-24T10:30:33;31.70;99.90
13650;DHT22;6898;50.918;4.688;2023-06-24T10:33:04;31.80;99.90
13650;DHT22;6898;50.918;4.688;2023-06-24T10:35:42;31.70;99.90
13650;DHT22;6898;50.918;4.688;2023-06-24T10:38:11;31.50;99.90
13650;DHT22;6898;50.918;4.688;2023-06-24T10:43:00;31.60;99.90
13650;DHT22;6898;50.918;4.688;2023-06-24T10:44:21;31.90;99.90
13650;DHT22;6898;50.918;4.688;2023-06-24T10:46:53;31.30;99.90
13650;DHT22;6898;50.918;4.688;2023-06-24T10:49:24;31.60;99.90
13650;DHT22;6898;50.918;4.688;2023-06-24T10:51:54;31.50;99.90
13650;DHT22;6898;50.918;4.688;2023-06-24T10:54:23;31.50;99.90
13650;DHT22;6898;50.918;4.688;2023-06-24T10:56:53;31.50;99.90
13650;DHT22;6898;50.918;4.688;2023-06-24T10:59:22;31.10;99.90
13650;DHT22;6898;50.918;4.688;2023-06-24T11:01:54;32.10;99.90
13650;DHT22;6898;50.918;4.688;2023-06-24T11:16:56;32.30;99.90
13650;DHT22;6898;50.918;4.688;2023-06-24T11:19:24;33.30;99.90
13650;DHT22;6898;50.918;4.688;2023-06-24T11:21:53;33.10;99.90
13650;DHT22;6898;50.918;4.688;2023-06-24T11:24:23;33.40;99.90
13650;DHT22;6898;50.918;4.688;2023-06-24T11:26:51;32.90;99.90
13650;DHT22;6898;50.918;4.688;2023-06-24T11:29:19;33.20;99.90
13650;DHT22;6898;50.918;4.688;2023-06-24T11:31:48;33.00;99.90
13650;DHT22;6898;50.918;4.688;2023-06-24T11:34:19;32.80;99.90
13650;DHT22;6898;50.918;4.688;2023-06-24T11:36:49;32.50;99.90
13650;DHT22;6898;50.918;4.688;2023-06-24T11:39:23;32.30;99.90
13650;DHT22;6898;50.918;4.688;2023-06-24T12:29:27;31.90;99.90
13650;DHT22;6898;50.918;4.688;2023-06-24T12:32:09;32.00;99.90
13650;DHT22;6898;50.918;4.688;2023-06-24T12:35:30;32.00;99.90
13650;DHT22;6898;50.918;4.688;2023-06-24T12:39:55;30.10;99.90
13650;DHT22;6898;50.918;4.688;2023-06-24T12:43:06;32.00;99.90
13650;DHT22;6898;50.918;4.688;2023-06-24T12:48:56;31.80;99.90
13650;DHT22;6898;50.918;4.688;2023-06-24T12:51:24;31.10;99.90
13650;DHT22;6898;50.918;4.688;2023-06-24T12:53:56;30.70;99.90
13650;DHT22;6898;50.918;4.688;2023-06-24T12:56:24;31.20;99.90
13650;DHT22;6898;50.918;4.688;2023-06-24T12:58:53;31.40;99.90
13650;DHT22;6898;50.918;4.688;2023-06-24T13:01:21;31.40;99.90
13650;DHT22;6898;50.918;4.688;2023-06-24T13:03:50;31.80;99.90
13650;DHT22;6898;50.918;4.688;2023-06-24T13:06:19;31.20;99.90
13650;DHT22;6898;50.918;4.688;2023-06-24T13:08:48;31.40;99.90
13650;DHT22;6898;50.918;4.688;2023-06-24T13:11:16;31.60;99.90
13650;DHT22;6898;50.918;4.688;2023-06-24T13:13:45;31.80;99.90
13650;DHT22;6898;50.918;4.688;2023-06-24T13:16:15;31.50;99.90
13650;DHT22;6898;50.918;4.688;2023-06-24T13:18:44;31.50;99.90
13650;DHT22;6898;50.918;4.688;2023-06-24T13:21:12;31.60;99.90
13650;DHT22;6898;50.918;4.688;2023-06-24T13:23:43;31.80;99.90
13650;DHT22;6898;50.918;4.688;2023-06-24T13:26:13;32.00;99.90
13650;DHT22;6898;50.918;4.688;2023-06-24T13:28:42;31.80;99.90
13650;DHT22;6898;50.918;4.688;2023-06-24T13:31:13;32.10;99.90
13650;DHT22;6898;50.918;4.688;2023-06-24T13:33:42;31.80;99.90
13650;DHT22;6898;50.918;4.688;2023-06-24T13:36:28;32.10;99.90
13650;DHT22;6898;50.918;4.688;2023-06-24T13:38:59;31.80;99.90
13650;DHT22;6898;50.918;4.688;2023-06-24T13:41:29;30.90;99.90
13650;DHT22;6898;50.918;4.688;2023-06-24T13:43:59;30.90;99.90
13650;DHT22;6898;50.918;4.688;2023-06-24T13:46:29;32.30;99.90
13650;DHT22;6898;50.918;4.688;2023-06-24T13:48:59;30.50;99.90
13650;DHT22;6898;50.918;4.688;2023-06-24T13:51:31;30.70;99.90
13650;DHT22;6898;50.918;4.688;2023-06-24T13:54:04;30.30;99.90
13650;DHT22;6898;50.918;4.688;2023-06-24T13:56:35;30.20;99.90
13650;DHT22;6898;50.918;4.688;2023-06-24T13:59:10;29.40;99.90
13650;DHT22;6898;50.918;4.688;2023-06-24T14:01:38;30.90;99.90
13650;DHT22;6898;50.918;4.688;2023-06-24T14:04:07;31.40;99.90
13650;DHT22;6898;50.918;4.688;2023-06-24T14:06:35;32.00;99.90
13650;DHT22;6898;50.918;4.688;2023-06-24T14:09:05;32.30;99.90
13650;DHT22;6898;50.918;4.688;2023-06-24T14:11:34;32.10;99.90
13650;DHT22;6898;50.918;4.688;2023-06-24T14:14:02;32.40;99.90
13650;DHT22;6898;50.918;4.688;2023-06-24T14:16:31;32.40;99.90
13650;DHT22;6898;50.918;4.688;2023-06-24T14:19:00;32.10;99.90
13650;DHT22;6898;50.918;4.688;2023-06-24T14:21:28;32.00;99.90
13650;DHT22;6898;50.918;4.688;2023-06-24T14:23:58;32.30;99.90
13650;DHT22;6898;50.918;4.688;2023-06-24T14:26:31;32.50;99.90
13650;DHT22;6898;50.918;4.688;2023-06-24T14:29:04;32.90;99.90
13650;DHT22;6898;50.918;4.688;2023-06-24T14:31:36;32.60;99.90
13650;DHT22;6898;50.918;4.688;2023-06-24T14:34:07;32.50;99.90
13650;DHT22;6898;50.918;4.688;2023-06-24T14:36:40;32.60;99.90
